Terminal Aerodrome Forecast
Issued by NWS

Home | Current Version | Previous Version | Text Only | Print | Product List | Glossary On
Versions: 1 2 3 4 5 6 7 8 9 10 11 12 13 14 15 16 17 18
000
FTUS43 KABR 261126
TAFMBG
TAF
KMBG 261126Z 2612/2712 VRB05KT P6SM SCT250
     FM261500 14009KT P6SM SCT250
     FM262300 06015G22KT P6SM -SHRA VCTS BKN090CB
     FM270400 04012KT P6SM OVC090
     FM270800 03010KT P6SM OVC015=

USA.gov is the U.S. government's official web portal to all federal, state and local government web resources and services.